sensor_id;sensor_type;location;lat;lon;timestamp;P1;durP1;ratioP1;P2;durP2;ratioP2
17504;SDS011;8870;50.950;11.762;2022-11-25T00:00:21;6.30;;;2.00;;
17504;SDS011;8870;50.950;11.762;2022-11-25T00:05:39;4.55;;;1.80;;
17504;SDS011;8870;50.950;11.762;2022-11-25T00:11:13;6.30;;;1.90;;
17504;SDS011;8870;50.950;11.762;2022-11-25T00:16:32;6.20;;;1.73;;
17504;SDS011;8870;50.950;11.762;2022-11-25T00:22:04;9.45;;;2.30;;
17504;SDS011;8870;50.950;11.762;2022-11-25T00:27:24;5.53;;;1.77;;
17504;SDS011;8870;50.950;11.762;2022-11-25T00:32:56;5.13;;;1.70;;
17504;SDS011;8870;50.950;11.762;2022-11-25T00:38:14;5.05;;;1.67;;
17504;SDS011;8870;50.950;11.762;2022-11-25T00:43:35;5.03;;;1.63;;
17504;SDS011;8870;50.950;11.762;2022-11-25T00:49:19;4.38;;;1.58;;
17504;SDS011;8870;50.950;11.762;2022-11-25T00:54:37;5.47;;;1.90;;
17504;SDS011;8870;50.950;11.762;2022-11-25T01:00:11;11.13;;;2.17;;
17504;SDS011;8870;50.950;11.762;2022-11-25T01:05:31;6.70;;;1.90;;
17504;SDS011;8870;50.950;11.762;2022-11-25T01:11:03;7.13;;;1.92;;
17504;SDS011;8870;50.950;11.762;2022-11-25T01:16:26;5.28;;;1.90;;
17504;SDS011;8870;50.950;11.762;2022-11-25T01:21:57;8.75;;;2.13;;
17504;SDS011;8870;50.950;11.762;2022-11-25T01:27:28;6.53;;;1.93;;
17504;SDS011;8870;50.950;11.762;2022-11-25T01:32:49;6.60;;;1.98;;
17504;SDS011;8870;50.950;11.762;2022-11-25T01:38:20;6.00;;;1.90;;
17504;SDS011;8870;50.950;11.762;2022-11-25T01:43:38;6.68;;;1.90;;
17504;SDS011;8870;50.950;11.762;2022-11-25T01:49:13;6.60;;;1.88;;
17504;SDS011;8870;50.950;11.762;2022-11-25T01:54:35;6.93;;;2.20;;
17504;SDS011;8870;50.950;11.762;2022-11-25T02:00:10;8.88;;;2.30;;
17504;SDS011;8870;50.950;11.762;2022-11-25T02:05:34;5.28;;;1.90;;
17504;SDS011;8870;50.950;11.762;2022-11-25T02:11:12;5.85;;;1.88;;
17504;SDS011;8870;50.950;11.762;2022-11-25T02:16:45;8.57;;;2.05;;
17504;SDS011;8870;50.950;11.762;2022-11-25T02:22:06;6.40;;;1.90;;
17504;SDS011;8870;50.950;11.762;2022-11-25T02:27:48;9.10;;;2.15;;
17504;SDS011;8870;50.950;11.762;2022-11-25T02:33:10;5.55;;;2.00;;
17504;SDS011;8870;50.950;11.762;2022-11-25T02:38:43;8.60;;;2.50;;
17504;SDS011;8870;50.950;11.762;2022-11-25T02:44:10;9.32;;;2.67;;
17504;SDS011;8870;50.950;11.762;2022-11-25T02:49:41;8.73;;;2.30;;
17504;SDS011;8870;50.950;11.762;2022-11-25T02:54:59;9.20;;;2.38;;
17504;SDS011;8870;50.950;11.762;2022-11-25T03:00:34;9.27;;;2.65;;
17504;SDS011;8870;50.950;11.762;2022-11-25T03:05:52;9.85;;;2.40;;
17504;SDS011;8870;50.950;11.762;2022-11-25T03:11:24;9.73;;;2.50;;
17504;SDS011;8870;50.950;11.762;2022-11-25T03:17:10;11.70;;;2.80;;
17504;SDS011;8870;50.950;11.762;2022-11-25T03:22:29;8.82;;;2.72;;
17504;SDS011;8870;50.950;11.762;2022-11-25T03:28:00;9.77;;;2.70;;
17504;SDS011;8870;50.950;11.762;2022-11-25T03:33:22;9.93;;;2.60;;
17504;SDS011;8870;50.950;11.762;2022-11-25T03:38:54;10.88;;;2.80;;
17504;SDS011;8870;50.950;11.762;2022-11-25T03:44:12;10.48;;;2.80;;
17504;SDS011;8870;50.950;11.762;2022-11-25T03:49:46;10.48;;;2.50;;
17504;SDS011;8870;50.950;11.762;2022-11-25T03:55:05;10.18;;;2.90;;
17504;SDS011;8870;50.950;11.762;2022-11-25T04:00:37;7.25;;;2.80;;
17504;SDS011;8870;50.950;11.762;2022-11-25T04:05:59;8.48;;;2.72;;
17504;SDS011;8870;50.950;11.762;2022-11-25T04:11:32;12.93;;;3.17;;
17504;SDS011;8870;50.950;11.762;2022-11-25T04:17:13;12.07;;;2.75;;
17504;SDS011;8870;50.950;11.762;2022-11-25T04:22:47;9.23;;;2.60;;
17504;SDS011;8870;50.950;11.762;2022-11-25T04:28:07;11.88;;;2.83;;
17504;SDS011;8870;50.950;11.762;2022-11-25T04:33:38;10.50;;;3.05;;
17504;SDS011;8870;50.950;11.762;2022-11-25T04:39:02;11.40;;;3.08;;
17504;SDS011;8870;50.950;11.762;2022-11-25T04:44:38;12.90;;;3.00;;
17504;SDS011;8870;50.950;11.762;2022-11-25T04:50:18;11.77;;;3.00;;
17504;SDS011;8870;50.950;11.762;2022-11-25T04:55:56;10.93;;;2.92;;
17504;SDS011;8870;50.950;11.762;2022-11-25T05:01:17;10.50;;;3.45;;
17504;SDS011;8870;50.950;11.762;2022-11-25T05:07:03;10.75;;;3.75;;
17504;SDS011;8870;50.950;11.762;2022-11-25T05:12:33;12.45;;;3.72;;
17504;SDS011;8870;50.950;11.762;2022-11-25T05:18:04;15.95;;;4.18;;
17504;SDS011;8870;50.950;11.762;2022-11-25T05:23:22;13.25;;;4.07;;
17504;SDS011;8870;50.950;11.762;2022-11-25T05:28:56;12.98;;;3.70;;
17504;SDS011;8870;50.950;11.762;2022-11-25T05:34:14;12.57;;;3.83;;
17504;SDS011;8870;50.950;11.762;2022-11-25T05:39:47;12.05;;;3.92;;
17504;SDS011;8870;50.950;11.762;2022-11-25T05:45:09;12.38;;;4.15;;
17504;SDS011;8870;50.950;11.762;2022-11-25T05:50:41;12.95;;;4.22;;
17504;SDS011;8870;50.950;11.762;2022-11-25T05:56:01;18.45;;;4.82;;
17504;SDS011;8870;50.950;11.762;2022-11-25T06:02:03;16.65;;;4.75;;
17504;SDS011;8870;50.950;11.762;2022-11-25T06:07:21;13.77;;;4.30;;
17504;SDS011;8870;50.950;11.762;2022-11-25T06:12:52;12.75;;;4.40;;
17504;SDS011;8870;50.950;11.762;2022-11-25T06:18:14;13.15;;;4.10;;
17504;SDS011;8870;50.950;11.762;2022-11-25T06:23:48;11.15;;;3.53;;
17504;SDS011;8870;50.950;11.762;2022-11-25T06:29:07;11.30;;;3.90;;
17504;SDS011;8870;50.950;11.762;2022-11-25T06:34:41;12.07;;;4.20;;
17504;SDS011;8870;50.950;11.762;2022-11-25T06:40:25;12.13;;;4.50;;
17504;SDS011;8870;50.950;11.762;2022-11-25T06:46:00;11.60;;;4.30;;
17504;SDS011;8870;50.950;11.762;2022-11-25T06:51:30;10.27;;;4.18;;
17504;SDS011;8870;50.950;11.762;2022-11-25T06:57:01;13.15;;;5.10;;
17504;SDS011;8870;50.950;11.762;2022-11-25T07:02:19;13.70;;;4.75;;
17504;SDS011;8870;50.950;11.762;2022-11-25T07:08:02;11.88;;;4.53;;
17504;SDS011;8870;50.950;11.762;2022-11-25T07:13:20;10.55;;;4.55;;
17504;SDS011;8870;50.950;11.762;2022-11-25T07:18:52;11.20;;;4.38;;
17504;SDS011;8870;50.950;11.762;2022-11-25T07:24:13;8.50;;;3.83;;
17504;SDS011;8870;50.950;11.762;2022-11-25T07:29:47;12.13;;;4.07;;
17504;SDS011;8870;50.950;11.762;2022-11-25T07:35:25;8.52;;;3.40;;
17504;SDS011;8870;50.950;11.762;2022-11-25T07:41:04;8.07;;;3.33;;
17504;SDS011;8870;50.950;11.762;2022-11-25T07:46:24;8.05;;;2.83;;
17504;SDS011;8870;50.950;11.762;2022-11-25T07:51:57;7.70;;;3.10;;
17504;SDS011;8870;50.950;11.762;2022-11-25T07:57:19;5.55;;;2.72;;
17504;SDS011;8870;50.950;11.762;2022-11-25T08:02:50;5.97;;;2.50;;
17504;SDS011;8870;50.950;11.762;2022-11-25T08:08:08;7.35;;;2.65;;
17504;SDS011;8870;50.950;11.762;2022-11-25T08:13:43;7.07;;;2.40;;
17504;SDS011;8870;50.950;11.762;2022-11-25T08:19:02;7.13;;;2.20;;
17504;SDS011;8870;50.950;11.762;2022-11-25T08:24:37;5.35;;;2.17;;
17504;SDS011;8870;50.950;11.762;2022-11-25T08:29:58;5.93;;;2.13;;
17504;SDS011;8870;50.950;11.762;2022-11-25T08:35:30;5.25;;;2.03;;
17504;SDS011;8870;50.950;11.762;2022-11-25T08:40:51;3.65;;;1.80;;
17504;SDS011;8870;50.950;11.762;2022-11-25T08:46:27;6.82;;;1.90;;
17504;SDS011;8870;50.950;11.762;2022-11-25T08:51:47;6.13;;;1.70;;
17504;SDS011;8870;50.950;11.762;2022-11-25T08:57:20;5.63;;;1.65;;
17504;SDS011;8870;50.950;11.762;2022-11-25T09:02:41;4.70;;;1.70;;
17504;SDS011;8870;50.950;11.762;2022-11-25T09:08:12;5.85;;;1.60;;
17504;SDS011;8870;50.950;11.762;2022-11-25T09:13:31;4.72;;;1.70;;
17504;SDS011;8870;50.950;11.762;2022-11-25T09:19:07;4.25;;;1.70;;
17504;SDS011;8870;50.950;11.762;2022-11-25T09:24:25;4.40;;;1.60;;
17504;SDS011;8870;50.950;11.762;2022-11-25T09:29:56;4.45;;;1.63;;
17504;SDS011;8870;50.950;11.762;2022-11-25T09:35:17;4.45;;;1.60;;
17504;SDS011;8870;50.950;11.762;2022-11-25T09:40:50;4.00;;;1.40;;
17504;SDS011;8870;50.950;11.762;2022-11-25T09:46:14;3.72;;;1.40;;
17504;SDS011;8870;50.950;11.762;2022-11-25T09:52:12;5.30;;;1.63;;
17504;SDS011;8870;50.950;11.762;2022-11-25T09:57:43;4.28;;;1.42;;
17504;SDS011;8870;50.950;11.762;2022-11-25T10:03:27;6.35;;;1.58;;
17504;SDS011;8870;50.950;11.762;2022-11-25T10:08:53;3.97;;;1.38;;
17504;SDS011;8870;50.950;11.762;2022-11-25T10:14:29;2.90;;;1.20;;
17504;SDS011;8870;50.950;11.762;2022-11-25T10:19:54;4.13;;;1.33;;
17504;SDS011;8870;50.950;11.762;2022-11-25T10:25:36;4.80;;;1.40;;
17504;SDS011;8870;50.950;11.762;2022-11-25T10:30:58;3.50;;;1.20;;
17504;SDS011;8870;50.950;11.762;2022-11-25T10:36:35;3.30;;;1.10;;
17504;SDS011;8870;50.950;11.762;2022-11-25T10:42:02;3.10;;;1.33;;
17504;SDS011;8870;50.950;11.762;2022-11-25T10:47:35;4.75;;;1.40;;
17504;SDS011;8870;50.950;11.762;2022-11-25T10:53:02;3.83;;;1.52;;
17504;SDS011;8870;50.950;11.762;2022-11-25T10:58:45;3.85;;;1.40;;
17504;SDS011;8870;50.950;11.762;2022-11-25T11:04:04;3.20;;;1.20;;
17504;SDS011;8870;50.950;11.762;2022-11-25T11:09:41;4.17;;;1.37;;
17504;SDS011;8870;50.950;11.762;2022-11-25T11:15:15;4.45;;;1.58;;
17504;SDS011;8870;50.950;11.762;2022-11-25T11:20:51;3.20;;;1.20;;
17504;SDS011;8870;50.950;11.762;2022-11-25T11:26:18;3.05;;;1.17;;
17504;SDS011;8870;50.950;11.762;2022-11-25T11:31:56;3.70;;;1.30;;
17504;SDS011;8870;50.950;11.762;2022-11-25T11:37:20;2.30;;;1.20;;
17504;SDS011;8870;50.950;11.762;2022-11-25T11:48:58;2.65;;;1.10;;
17504;SDS011;8870;50.950;11.762;2022-11-25T11:54:44;2.35;;;1.10;;
17504;SDS011;8870;50.950;11.762;2022-11-25T12:00:11;3.87;;;1.20;;
17504;SDS011;8870;50.950;11.762;2022-11-25T12:05:52;4.05;;;1.70;;
17504;SDS011;8870;50.950;11.762;2022-11-25T12:11:14;3.43;;;1.43;;
17504;SDS011;8870;50.950;11.762;2022-11-25T12:16:52;3.15;;;1.25;;
17504;SDS011;8870;50.950;11.762;2022-11-25T12:22:19;4.13;;;1.63;;
17504;SDS011;8870;50.950;11.762;2022-11-25T12:27:57;4.28;;;1.50;;
17504;SDS011;8870;50.950;11.762;2022-11-25T12:33:19;4.38;;;1.38;;
17504;SDS011;8870;50.950;11.762;2022-11-25T12:39:02;4.80;;;1.30;;
17504;SDS011;8870;50.950;11.762;2022-11-25T12:44:23;4.20;;;1.33;;
17504;SDS011;8870;50.950;11.762;2022-11-25T12:50:00;2.77;;;1.30;;
17504;SDS011;8870;50.950;11.762;2022-11-25T12:55:21;2.50;;;1.05;;
17504;SDS011;8870;50.950;11.762;2022-11-25T13:06:53;2.25;;;1.20;;
17504;SDS011;8870;50.950;11.762;2022-11-25T13:18:14;4.35;;;1.27;;
17504;SDS011;8870;50.950;11.762;2022-11-25T13:23:42;4.30;;;1.50;;
17504;SDS011;8870;50.950;11.762;2022-11-25T13:41:23;2.95;;;1.60;;
17504;SDS011;8870;50.950;11.762;2022-11-25T13:46:53;2.75;;;1.35;;
17504;SDS011;8870;50.950;11.762;2022-11-25T13:52:42;4.80;;;1.40;;
17504;SDS011;8870;50.950;11.762;2022-11-25T13:58:15;3.95;;;1.58;;
17504;SDS011;8870;50.950;11.762;2022-11-25T14:03:56;2.38;;;1.30;;
17504;SDS011;8870;50.950;11.762;2022-11-25T14:09:25;3.25;;;1.55;;
17504;SDS011;8870;50.950;11.762;2022-11-25T14:21:00;2.55;;;1.40;;
17504;SDS011;8870;50.950;11.762;2022-11-25T14:26:39;3.03;;;1.50;;
17504;SDS011;8870;50.950;11.762;2022-11-25T14:32:00;5.18;;;2.15;;
17504;SDS011;8870;50.950;11.762;2022-11-25T14:37:38;4.57;;;1.63;;
17504;SDS011;8870;50.950;11.762;2022-11-25T14:43:04;4.60;;;1.70;;
17504;SDS011;8870;50.950;11.762;2022-11-25T14:48:42;4.80;;;1.75;;
17504;SDS011;8870;50.950;11.762;2022-11-25T14:54:01;3.85;;;1.60;;
17504;SDS011;8870;50.950;11.762;2022-11-25T14:59:36;6.10;;;2.00;;
17504;SDS011;8870;50.950;11.762;2022-11-25T15:05:14;6.18;;;2.05;;
17504;SDS011;8870;50.950;11.762;2022-11-25T15:10:49;7.25;;;1.90;;
17504;SDS011;8870;50.950;11.762;2022-11-25T15:16:13;4.25;;;1.98;;
17504;SDS011;8870;50.950;11.762;2022-11-25T15:21:55;6.70;;;1.90;;
17504;SDS011;8870;50.950;11.762;2022-11-25T15:27:30;4.45;;;2.13;;
17504;SDS011;8870;50.950;11.762;2022-11-25T15:33:07;5.45;;;2.00;;
17504;SDS011;8870;50.950;11.762;2022-11-25T15:38:34;3.60;;;1.90;;
17504;SDS011;8870;50.950;11.762;2022-11-25T15:44:13;4.07;;;2.00;;
17504;SDS011;8870;50.950;11.762;2022-11-25T15:49:38;4.68;;;1.70;;
17504;SDS011;8870;50.950;11.762;2022-11-25T15:55:16;6.05;;;1.80;;
17504;SDS011;8870;50.950;11.762;2022-11-25T16:00:36;3.40;;;1.70;;
17504;SDS011;8870;50.950;11.762;2022-11-25T16:06:20;3.60;;;2.00;;
17504;SDS011;8870;50.950;11.762;2022-11-25T16:11:47;6.40;;;2.60;;
17504;SDS011;8870;50.950;11.762;2022-11-25T16:17:18;5.43;;;2.63;;
17504;SDS011;8870;50.950;11.762;2022-11-25T16:22:39;4.68;;;2.53;;
17504;SDS011;8870;50.950;11.762;2022-11-25T16:28:15;4.60;;;2.83;;
17504;SDS011;8870;50.950;11.762;2022-11-25T16:33:35;5.82;;;3.38;;
17504;SDS011;8870;50.950;11.762;2022-11-25T16:39:09;5.32;;;3.15;;
17504;SDS011;8870;50.950;11.762;2022-11-25T16:44:27;6.68;;;3.33;;
17504;SDS011;8870;50.950;11.762;2022-11-25T16:50:00;5.53;;;2.65;;
17504;SDS011;8870;50.950;11.762;2022-11-25T16:55:24;5.43;;;2.58;;
17504;SDS011;8870;50.950;11.762;2022-11-25T17:00:56;4.57;;;1.80;;
17504;SDS011;8870;50.950;11.762;2022-11-25T17:06:16;2.92;;;1.80;;
17504;SDS011;8870;50.950;11.762;2022-11-25T17:11:51;3.67;;;1.80;;
17504;SDS011;8870;50.950;11.762;2022-11-25T17:17:22;4.10;;;1.83;;
17504;SDS011;8870;50.950;11.762;2022-11-25T17:22:42;3.05;;;1.85;;
17504;SDS011;8870;50.950;11.762;2022-11-25T17:28:16;3.53;;;2.13;;
17504;SDS011;8870;50.950;11.762;2022-11-25T17:33:37;5.40;;;2.43;;
17504;SDS011;8870;50.950;11.762;2022-11-25T17:39:10;4.72;;;3.20;;
17504;SDS011;8870;50.950;11.762;2022-11-25T17:44:31;6.63;;;3.60;;
17504;SDS011;8870;50.950;11.762;2022-11-25T17:50:17;7.65;;;4.30;;
17504;SDS011;8870;50.950;11.762;2022-11-25T17:55:37;5.93;;;3.92;;
17504;SDS011;8870;50.950;11.762;2022-11-25T18:01:14;5.82;;;3.55;;
17504;SDS011;8870;50.950;11.762;2022-11-25T18:06:32;5.05;;;3.50;;
17504;SDS011;8870;50.950;11.762;2022-11-25T18:12:07;10.13;;;6.78;;
17504;SDS011;8870;50.950;11.762;2022-11-25T18:17:46;8.93;;;5.65;;
17504;SDS011;8870;50.950;11.762;2022-11-25T18:23:07;7.40;;;5.30;;
17504;SDS011;8870;50.950;11.762;2022-11-25T18:28:39;6.93;;;4.80;;
17504;SDS011;8870;50.950;11.762;2022-11-25T18:34:00;6.65;;;4.97;;
17504;SDS011;8870;50.950;11.762;2022-11-25T18:39:31;6.50;;;4.25;;
17504;SDS011;8870;50.950;11.762;2022-11-25T18:44:50;6.85;;;4.50;;
17504;SDS011;8870;50.950;11.762;2022-11-25T18:50:25;5.43;;;3.75;;
17504;SDS011;8870;50.950;11.762;2022-11-25T18:55:44;3.72;;;2.63;;
17504;SDS011;8870;50.950;11.762;2022-11-25T19:01:16;5.30;;;3.05;;
17504;SDS011;8870;50.950;11.762;2022-11-25T19:06:38;4.93;;;2.58;;
17504;SDS011;8870;50.950;11.762;2022-11-25T19:12:10;3.25;;;2.20;;
17504;SDS011;8870;50.950;11.762;2022-11-25T19:17:33;4.40;;;2.30;;
17504;SDS011;8870;50.950;11.762;2022-11-25T19:23:15;4.32;;;2.28;;
17504;SDS011;8870;50.950;11.762;2022-11-25T19:28:35;4.25;;;2.40;;
17504;SDS011;8870;50.950;11.762;2022-11-25T19:34:07;6.70;;;2.33;;
17504;SDS011;8870;50.950;11.762;2022-11-25T19:39:33;4.28;;;2.17;;
17504;SDS011;8870;50.950;11.762;2022-11-25T19:45:06;3.30;;;2.03;;
17504;SDS011;8870;50.950;11.762;2022-11-25T19:50:26;5.22;;;2.50;;
17504;SDS011;8870;50.950;11.762;2022-11-25T19:56:01;4.47;;;2.45;;
17504;SDS011;8870;50.950;11.762;2022-11-25T20:01:20;6.55;;;2.67;;
17504;SDS011;8870;50.950;11.762;2022-11-25T20:06:56;6.63;;;2.58;;
17504;SDS011;8870;50.950;11.762;2022-11-25T20:12:24;5.40;;;2.45;;
17504;SDS011;8870;50.950;11.762;2022-11-25T20:17:57;4.70;;;2.50;;
17504;SDS011;8870;50.950;11.762;2022-11-25T20:23:23;3.75;;;2.30;;
17504;SDS011;8870;50.950;11.762;2022-11-25T20:29:01;4.07;;;2.40;;
17504;SDS011;8870;50.950;11.762;2022-11-25T20:34:26;4.00;;;2.28;;
17504;SDS011;8870;50.950;11.762;2022-11-25T20:40:02;6.78;;;2.33;;
17504;SDS011;8870;50.950;11.762;2022-11-25T20:45:24;5.53;;;2.67;;
17504;SDS011;8870;50.950;11.762;2022-11-25T20:50:57;4.90;;;2.20;;
17504;SDS011;8870;50.950;11.762;2022-11-25T20:56:17;6.85;;;2.40;;
17504;SDS011;8870;50.950;11.762;2022-11-25T21:01:53;8.40;;;2.38;;
17504;SDS011;8870;50.950;11.762;2022-11-25T21:07:12;5.90;;;2.58;;
17504;SDS011;8870;50.950;11.762;2022-11-25T21:12:44;5.88;;;2.30;;
17504;SDS011;8870;50.950;11.762;2022-11-25T21:18:19;6.97;;;2.38;;
17504;SDS011;8870;50.950;11.762;2022-11-25T21:23:38;4.97;;;2.60;;
17504;SDS011;8870;50.950;11.762;2022-11-25T21:29:08;8.63;;;2.60;;
17504;SDS011;8870;50.950;11.762;2022-11-25T21:34:33;4.90;;;2.60;;
17504;SDS011;8870;50.950;11.762;2022-11-25T21:40:05;6.18;;;2.85;;
17504;SDS011;8870;50.950;11.762;2022-11-25T21:45:32;5.95;;;2.67;;
17504;SDS011;8870;50.950;11.762;2022-11-25T21:51:05;5.90;;;2.70;;
17504;SDS011;8870;50.950;11.762;2022-11-25T21:56:26;5.82;;;2.90;;
17504;SDS011;8870;50.950;11.762;2022-11-25T22:02:00;7.55;;;3.03;;
17504;SDS011;8870;50.950;11.762;2022-11-25T22:07:21;7.45;;;3.38;;
17504;SDS011;8870;50.950;11.762;2022-11-25T22:12:52;5.53;;;3.17;;
17504;SDS011;8870;50.950;11.762;2022-11-25T22:23:47;8.73;;;3.33;;
17504;SDS011;8870;50.950;11.762;2022-11-25T22:29:19;6.75;;;3.42;;
17504;SDS011;8870;50.950;11.762;2022-11-25T22:34:40;6.80;;;3.40;;
17504;SDS011;8870;50.950;11.762;2022-11-25T22:40:14;7.32;;;2.95;;
17504;SDS011;8870;50.950;11.762;2022-11-25T22:45:46;6.75;;;3.17;;
17504;SDS011;8870;50.950;11.762;2022-11-25T22:51:04;6.40;;;3.03;;
17504;SDS011;8870;50.950;11.762;2022-11-25T22:56:38;4.65;;;2.97;;
17504;SDS011;8870;50.950;11.762;2022-11-25T23:01:57;8.50;;;3.17;;
17504;SDS011;8870;50.950;11.762;2022-11-25T23:07:27;6.43;;;3.00;;
17504;SDS011;8870;50.950;11.762;2022-11-25T23:12:55;7.22;;;3.40;;
17504;SDS011;8870;50.950;11.762;2022-11-25T23:18:27;8.73;;;3.35;;
17504;SDS011;8870;50.950;11.762;2022-11-25T23:23:49;6.03;;;3.35;;
17504;SDS011;8870;50.950;11.762;2022-11-25T23:29:23;8.07;;;3.45;;
17504;SDS011;8870;50.950;11.762;2022-11-25T23:34:42;9.43;;;3.78;;
17504;SDS011;8870;50.950;11.762;2022-11-25T23:40:16;6.43;;;3.20;;
17504;SDS011;8870;50.950;11.762;2022-11-25T23:45:40;7.50;;;3.45;;
17504;SDS011;8870;50.950;11.762;2022-11-25T23:51:16;8.70;;;3.85;;
17504;SDS011;8870;50.950;11.762;2022-11-25T23:56:35;9.30;;;4.10;;
